Latest Weather Observations for Richmond

IDQ60801

Issued at 7:05 am EST Monday 24 November 2014 (issued every 30 minutes, with the page automatically refreshed every 10 minutes)

About weather observations | Map of weather stations | Latest weather observations for QLD | Other Formats
Station Details ID: 030161 Name: RICHMOND AIRPORT Lat: -20.70 Lon: 143.12 Height: 206.3 m
Data from the previous 72 hours. | See also: Recent months at Richmond
Date/Time
EST
Temp
°C
App
Temp
°C
Dew
Point
Rel
Hum
%
Delta-T
°C
Wind Press
QNH
hPa
Press
MSL
hPa
Rain
since 9 am
mm
Dir
 
Spd
km/h
Gust
km/h
Spd
kts
Gust
kts
24/07:00am 26.6 26.2 16.2 52 6.5 N 13 15 7 8 1012.6 1011.2 0.0
24/06:30am 25.0 25.0 16.2 58 5.4 NNE 11 13 6 7 1012.2 1010.8 0.0
24/06:00am 24.2 24.2 16.2 61 4.9 NE 11 13 6 7 1011.8 1010.4 0.0
24/05:30am 23.8 23.6 15.8 61 4.9 N 11 15 6 8 1011.5 1010.1 0.0
24/05:00am 24.6 24.1 15.8 58 5.4 N 13 19 7 10 1011.1 1009.6 0.0
24/04:30am 25.4 24.6 16.0 56 5.8 N 15 20 8 11 1010.9 1009.4 0.0
24/04:00am 26.2 25.0 16.2 54 6.2 NNE 17 20 9 11 1010.6 1009.1 0.0
24/03:30am 27.0 25.4 16.0 51 6.8 NNE 19 26 10 14 1010.5 1009.0 0.0
24/03:00am 26.9 25.3 15.9 51 6.8 NNE 19 22 10 12 1010.4 1008.9 0.0
24/02:30am 27.1 25.5 16.1 51 6.8 NNE 19 24 10 13 1010.3 1008.8 0.0
24/02:00am 27.1 25.2 15.8 50 7.0 NNE 20 28 11 15 1010.3 1008.8 0.0
24/01:30am 26.5 25.3 17.0 56 6.0 N 19 22 10 12 1010.4 1008.9 0.0
24/01:00am 26.4 27.0 16.9 56 6.0 NE 9 13 5 7 1010.4 1008.9 0.0
24/12:30am 26.6 26.7 17.4 57 5.8 NE 13 17 7 9 1010.4 1008.9 0.0
24/12:00am 25.8 27.7 20.6 73 3.4 NNE 11 15 6 8 1010.4 1008.9 0.0
 
Date/Time
EST
Temp
°C
App
Temp
°C
Dew
Point
Rel
Hum
%
Delta-T
°C
Wind Press
QNH
hPa
Press
MSL
hPa
Rain
since 9 am
mm
Dir
 
Spd
km/h
Gust
km/h
Spd
kts
Gust
kts
23/11:30pm 27.9 29.5 19.9 61 5.3 E 11 13 6 7 1010.6 1009.1 0.0
23/11:00pm 29.4 30.4 16.9 47 7.9 NE 7 11 4 6 1010.8 1009.3 0.0
23/10:30pm 28.0 29.8 19.5 60 5.6 NNE 9 13 5 7 1010.7 1009.2 0.0
23/10:00pm 27.7 29.7 19.2 60 5.5 NNE 7 11 4 6 1010.5 1009.0 0.0
23/09:30pm 29.0 32.3 19.0 54 6.5 CALM 0 0 0 0 1010.3 1008.8 0.0
23/09:00pm 29.4 32.7 19.1 54 6.7 CALM 0 6 0 3 1010.0 1008.5 0.0
23/08:30pm 30.3 31.6 18.4 49 7.7 W 9 11 5 6 1009.5 1008.0 0.0
23/08:00pm 30.6 30.3 18.3 47 8.0 NW 17 19 9 10 1009.0 1007.6 0.0
23/07:30pm 31.8 33.1 20.1 50 7.8 NNW 13 15 7 8 1008.8 1007.4 0.0
23/07:00pm 34.5 34.6 15.4 32 12.1 SSW 9 13 5 7 1008.5 1007.1 0.0
23/06:30pm 34.9 37.2 16.7 34 11.7 CALM 0 6 0 3 1008.0 1006.6 0.0
23/06:00pm 36.4 36.7 14.4 27 13.8 W 6 7 3 4 1007.8 1006.4 0.0
23/05:30pm 34.6 35.3 16.0 33 11.8 N 7 9 4 5 1007.6 1006.2 0.0
23/05:06pm 33.7 29.0 14.2 30 12.0 N 32 50 17 27 1007.7 1006.3 0.0
23/05:00pm 31.8 26.3 15.7 37 10.1 N 39 50 21 27 1007.7 1006.3 0.0
23/04:50pm 29.4 21.7 15.5 43 8.6 NNE 50 65 27 35 1008.0 1006.6 0.0
23/04:47pm 32.6 25.5 13.3 31 11.7 ENE 43 61 23 33 1007.9 1006.5 0.0
23/04:46pm 32.7 26.1 13.8 31 11.6 ENE 41 57 22 31 1007.9 1006.5 0.0
23/04:37pm 37.8 31.6 13.7 23 15.0 E 39 63 21 34 1007.6 1006.2 0.0
23/04:30pm 39.0 33.4 13.4 22 15.9 SE 35 48 19 26 1007.2 1005.8 0.0
23/04:00pm 40.7 38.7 12.6 19 17.4 NE 15 33 8 18 1007.2 1005.8 0.0
23/03:30pm 40.3 37.4 13.0 20 17.0 E 20 33 11 18 1007.6 1006.2 0.0
23/03:00pm 40.3 37.4 12.2 19 17.3 ENE 19 33 10 18 1008.3 1006.9 0.0
23/02:30pm 40.2 38.8 14.4 22 16.3 ENE 15 20 8 11 1008.8 1007.4 0.0
23/02:00pm 39.2 36.7 13.6 22 16.0 E 19 26 10 14 1009.6 1008.1 0.0
23/01:30pm 39.0 38.0 14.7 23 15.4 N 13 24 7 13 1010.3 1008.8 0.0
23/01:00pm 38.2 36.7 15.3 25 14.6 N 17 24 9 13 1010.9 1009.4 0.0
23/12:30pm 38.7 37.7 15.7 25 14.7 NNW 15 22 8 12 1011.4 1010.0 0.0
23/12:00pm 38.1 37.6 15.8 26 14.3 NE 13 28 7 15 1011.9 1010.5 0.0
23/11:30am 37.7 37.1 16.6 28 13.7 N 15 24 8 13 1012.3 1010.9 0.0
23/11:00am 36.8 35.7 16.4 30 13.1 N 17 33 9 18 1012.6 1011.2 0.0
23/10:30am 35.3 33.2 15.1 30 12.7 NNE 20 30 11 16 1012.9 1011.5 0.0
23/10:00am 34.5 32.9 16.4 34 11.6 N 20 28 11 15 1013.3 1011.9 0.0
23/09:30am 34.3 33.4 18.3 38 10.5 NNE 20 24 11 13 1013.4 1012.0 0.0
23/09:00am 32.2 30.6 16.1 38 10.2 NE 19 26 10 14 1013.6 1012.2 0.0
23/08:30am 31.6 31.5 17.9 44 8.9 NE 15 20 8 11 1013.6 1012.2 0.0
23/08:00am 29.8 29.6 17.6 48 7.8 ENE 15 19 8 10 1013.5 1012.1 0.0
23/07:30am 28.0 29.4 18.7 57 6.0 ENE 9 15 5 8 1013.3 1011.9 0.0
23/07:00am 25.9 26.7 18.1 62 5.0 E 11 15 6 8 1012.9 1011.5 0.0
23/06:30am 26.0 26.3 17.9 61 5.1 ESE 13 17 7 9 1012.4 1011.0 0.0
23/06:00am 25.6 25.8 18.5 65 4.5 ESE 15 17 8 9 1012.0 1010.6 0.0
23/05:30am 24.6 24.6 19.0 71 3.6 SE 17 17 9 9 1011.7 1010.3 0.0
23/05:00am 23.9 25.0 18.8 73 3.3 SSE 11 13 6 7 1011.7 1010.3 0.0
23/04:30am 24.4 27.4 19.2 73 3.4 ESE 2 7 1 4 1011.7 1010.3 0.0
23/04:00am 25.2 26.8 19.1 69 3.9 E 9 13 5 7 1011.3 1009.9 0.0
23/03:30am 25.4 26.6 19.1 68 4.1 SSE 11 13 6 7 1011.5 1010.1 0.0
23/03:00am 24.9 27.1 19.3 71 3.6 E 6 9 3 5 1011.1 1009.6 0.0
23/02:30am 25.7 26.4 18.9 66 4.4 E 13 17 7 9 1011.1 1009.6 0.0
23/02:02am 25.3 23.2 19.0 68 4.1 S 28 52 15 28 1010.8 1009.3 0.0
23/02:00am 24.8 23.6 19.2 71 3.6 S 24 35 13 19 1010.8 1009.3 0.0
23/01:30am 25.7 27.1 19.6 69 4.0 NE 11 13 6 7 1010.2 1008.7 0.0
23/01:00am 26.0 27.4 19.6 68 4.2 N 11 11 6 6 1010.6 1009.1 0.0
23/12:30am 26.0 28.0 19.9 69 4.0 N 9 11 5 6 1010.5 1009.0 0.0
23/12:00am 26.2 29.4 19.8 68 4.2 E 2 7 1 4 1010.4 1008.9 0.0
 
Date/Time
EST
Temp
°C
App
Temp
°C
Dew
Point
Rel
Hum
%
Delta-T
°C
Wind Press
QNH
hPa
Press
MSL
hPa
Rain
since 9 am
mm
Dir
 
Spd
km/h
Gust
km/h
Spd
kts
Gust
kts
22/11:30pm 26.8 28.5 19.4 64 4.8 ENE 9 13 5 7 1010.5 1009.0 0.0
22/11:00pm 26.8 28.5 18.4 60 5.4 NE 7 17 4 9 1010.6 1009.1 0.0
22/10:30pm 27.5 29.4 18.5 58 5.8 SW 6 7 3 4 1010.4 1008.9 0.0
22/10:00pm 28.4 29.9 18.8 56 6.2 NW 9 9 5 5 1010.4 1008.9 0.0
22/09:30pm 28.1 29.3 18.2 55 6.4 WNW 9 11 5 6 1010.3 1008.8 0.0
22/09:00pm 29.2 28.9 17.4 49 7.5 NW 15 19 8 10 1010.1 1008.6 0.0
22/08:30pm 29.7 28.9 17.2 47 8.0 NNW 17 20 9 11 1010.1 1008.6 0.0
22/08:00pm 30.4 31.9 17.5 46 8.3 NNW 6 13 3 7 1010.1 1008.6 0.0
22/07:30pm 30.9 31.0 16.5 42 9.1 NNW 11 15 6 8 1009.9 1008.4 0.0
22/07:00pm 31.0 27.8 15.4 38 9.7 NNW 26 32 14 17 1009.5 1008.0 0.0
22/06:30pm 31.8 29.2 14.9 36 10.5 N 22 32 12 17 1009.9 1008.4 0.0
22/06:00pm 30.9 26.1 15.7 39 9.5 N 35 50 19 27 1009.2 1007.8 0.0
22/05:30pm 29.9 24.8 18.7 51 7.3 NNE 43 61 23 33 1008.9 1007.5 0.0
22/05:02pm 33.6 29.0 15.1 33 11.6 N 33 57 18 31 1008.5 1007.1 0.0
22/05:00pm 34.5 30.2 15.4 32 12.1 N 32 41 17 22 1008.6 1007.2 0.0
22/04:56pm 36.3 32.4 14.3 27 13.7 N 28 41 15 22 1008.2 1006.8 0.0
22/04:30pm 39.4 39.4 15.1 24 15.5 SW 9 17 5 9 1007.5 1006.1 0.0
22/04:00pm 38.9 37.6 14.7 24 15.3 SSE 15 22 8 12 1007.6 1006.2 0.0
22/03:30pm 39.2 39.3 15.5 24 15.2 W 9 17 5 9 1008.2 1006.8 0.0
22/03:00pm 38.8 39.4 15.8 25 14.8 SW 7 17 4 9 1008.6 1007.2 0.0
22/02:30pm 38.3 38.8 16.6 28 14.1 SW 9 19 5 10 1009.0 1007.6 0.0
22/02:00pm 37.8 38.0 16.7 29 13.7 S 11 19 6 10 1009.7 1008.2 0.0
22/01:30pm 37.2 36.6 15.6 27 13.8 S 13 19 7 10 1010.2 1008.7 0.0
22/01:00pm 36.6 37.7 16.7 30 12.9 SE 6 17 3 9 1010.7 1009.2 0.0
22/12:30pm 35.7 36.1 16.4 31 12.4 SSW 9 15 5 8 1011.3 1009.9 0.0
22/12:00pm 35.4 36.9 18.9 37 10.9 S 9 15 5 8 1011.6 1010.2 0.0
22/11:30am 34.1 35.3 17.3 36 10.9 SW 7 15 4 8 1012.1 1010.7 0.0
22/11:00am 33.7 35.1 17.4 37 10.5 SSE 6 11 3 6 1012.4 1011.0 0.0
22/10:30am 32.4 33.9 17.5 41 9.6 S 6 11 3 6 1012.7 1011.3 0.0
22/10:00am 31.6 33.0 18.6 46 8.5 SSW 9 13 5 7 1012.8 1011.4 0.0
22/09:30am 30.7 32.7 20.0 52 7.1 S 9 13 5 7 1012.9 1011.5 0.0
22/09:00am 30.4 31.3 18.5 49 7.7 SSE 11 15 6 8 1013.1 1011.7 19.6
22/08:30am 29.6 29.5 19.9 56 6.4 ESE 20 22 11 12 1013.0 1011.6 19.6
22/08:00am 28.2 28.6 21.0 65 4.8 ESE 20 30 11 16 1013.2 1011.8 19.6
22/07:30am 26.4 29.2 21.6 75 3.2 E 9 11 5 6 1012.4 1011.0 19.6
22/07:00am 26.2 28.2 20.7 71 3.6 W 11 15 6 8 1011.2 1009.8 19.6
22/06:30am 26.2 26.2 19.8 68 4.2 NW 19 20 10 11 1010.9 1009.4 19.6
22/06:00am 25.1 25.3 20.6 76 3.0 NW 20 24 11 13 1010.5 1009.0 19.6
22/05:30am 24.9 26.4 20.6 77 2.8 N 13 15 7 8 1010.7 1009.2 19.6
22/05:00am 24.4 26.7 19.9 76 2.9 S 7 11 4 6 1011.3 1009.9 19.6
22/04:30am 25.0 26.4 19.6 72 3.5 ESE 11 13 6 7 1011.2 1009.8 19.6
22/04:00am 25.1 26.0 19.2 70 3.8 SE 13 19 7 10 1010.8 1009.3 19.6
22/03:30am 26.8 27.5 18.9 62 5.1 ENE 13 19 7 10 1010.7 1009.2 19.6
22/03:00am 25.8 26.1 19.7 69 4.0 ESE 17 20 9 11 1010.7 1009.2 19.6
22/02:30am 25.4 26.0 20.2 73 3.4 ESE 17 20 9 11 1010.9 1009.4 19.6
22/02:00am 24.1 26.0 21.4 85 1.8 SE 13 17 7 9 1010.6 1009.1 19.6
22/01:30am 24.4 26.2 21.1 82 2.2 SE 13 15 7 8 1010.2 1008.7 19.6
22/01:00am 24.4 25.9 20.5 79 2.6 SSE 13 17 7 9 1009.9 1008.4 19.6
22/12:30am 25.3 28.7 19.4 70 3.8 CALM 0 0 0 0 1009.7 1008.2 19.6
22/12:00am 27.1 28.7 17.8 56 5.9 N 6 9 3 5 1009.8 1008.3 19.6
 
Date/Time
EST
Temp
°C
App
Temp
°C
Dew
Point
Rel
Hum
%
Delta-T
°C
Wind Press
QNH
hPa
Press
MSL
hPa
Rain
since 9 am
mm
Dir
 
Spd
km/h
Gust
km/h
Spd
kts
Gust
kts
21/11:30pm 28.0 27.2 17.2 52 6.8 N 17 24 9 13 1009.6 1008.1 19.6
21/11:00pm 27.8 26.0 17.0 51 6.8 N 22 30 12 16 1009.7 1008.2 19.6
21/10:30pm 27.6 25.7 17.7 54 6.3 N 24 35 13 19 1009.5 1008.0 19.6
21/10:00pm 27.1 24.4 17.6 56 6.0 N 28 39 15 21 1009.3 1007.9 19.6
21/09:30pm 28.7 25.2 16.6 48 7.6 N 30 44 16 24 1010.1 1008.6 19.6
21/09:18pm 28.3 25.3 16.9 50 7.2 N 28 43 15 23 1009.7 1008.2 19.6
21/09:00pm 27.9 27.6 18.3 56 6.2 NNW 17 22 9 12 1009.1 1007.7 19.6
21/08:30pm 26.6 27.2 19.5 65 4.6 SSW 15 20 8 11 1010.3 1008.8 19.6
21/08:00pm 26.3 24.4 19.4 66 4.5 SSW 28 33 15 18 1011.3 1009.9 19.4
21/07:30pm 26.6 23.8 19.5 65 4.6 SSW 33 41 18 22 1011.5 1010.1 19.0
21/07:00pm 26.6 22.2 18.5 61 5.2 S 39 50 21 27 1010.1 1008.6 19.0
21/06:30pm 24.2 17.7 20.1 78 2.7 SSW 54 72 29 39 1010.3 1008.8 19.0
21/06:27pm 24.7 19.1 20.4 77 2.8 SSW 50 72 27 39 1010.3 1008.8 18.8
21/06:19pm 24.4 19.9 19.9 76 2.9 SW 43 48 23 26 1011.2 1009.8 17.8
21/06:11pm 24.1 24.5 21.0 83 2.0 SW 20 24 11 13 1011.9 1010.5 17.2
21/06:00pm 24.1 20.1 21.0 83 2.1 WSW 43 50 23 27 1011.0 1009.5 16.8
21/05:31pm 23.5 20.2 20.8 85 1.8 WSW 39 57 21 31 1011.2 1009.8 5.4
21/05:30pm 23.7 19.5 20.6 83 2.0 WSW 43 57 23 31 1011.0 1009.5 4.2
21/05:19pm 26.0 19.2 21.4 76 3.1 SSW 59 78 32 42 1008.9 1007.5 0.2
21/05:16pm 26.3 18.4 20.8 71 3.6 SSW 63 78 34 42 1008.0 1006.6 0.2
21/05:02pm 28.9 17.8 16.5 47 7.8 SSW 70 95 38 51 1006.0 1004.5 0.0
21/05:01pm 31.7 25.0 16.0 38 9.9 S 46 87 25 47 1006.4 1004.9 0.0
21/05:00pm 36.4 29.5 14.4 27 13.8 S 44 65 24 35 1006.3 1004.8 0.0
21/04:48pm 35.5 29.8 11.8 24 14.2 S 33 65 18 35 1005.9 1004.4 0.0
21/04:46pm 38.0 33.0 11.1 20 16.1 S 28 46 15 25 1006.1 1004.6 0.0
21/04:44pm 38.2 33.3 11.3 20 16.2 S 28 41 15 22 1006.0 1004.5 0.0
21/04:30pm 39.8 38.9 12.6 20 16.8 W 9 17 5 9 1005.9 1004.4 0.0
21/04:00pm 40.6 39.0 11.7 18 17.7 WNW 11 20 6 11 1005.8 1004.3 0.0
21/03:30pm 40.5 39.5 12.4 19 17.3 N 9 22 5 12 1006.3 1004.8 0.0
21/03:00pm 41.1 40.2 13.7 20 17.3 WSW 11 19 6 10 1006.7 1005.2 0.0
21/02:30pm 40.6 38.9 12.5 19 17.4 WSW 13 24 7 13 1007.6 1006.2 0.0
21/02:00pm 41.3 41.3 15.3 22 16.7 W 9 22 5 12 1008.4 1007.0 0.0
21/01:30pm 39.3 37.6 13.7 22 16.0 N 15 26 8 14 1009.1 1007.7 0.0
21/01:00pm 39.6 38.6 14.6 23 15.9 W 13 20 7 11 1009.8 1008.3 0.0
21/12:30pm 40.1 39.0 16.3 24 15.4 NNW 17 30 9 16 1010.3 1008.8 0.0
21/12:00pm 39.0 36.1 16.0 26 14.8 NW 26 39 14 21 1010.8 1009.3 0.0
21/11:30am 38.6 36.1 16.2 26 14.5 NW 24 35 13 19 1011.3 1009.9 0.0
21/11:00am 38.1 35.3 16.4 27 14.0 N 26 35 14 19 1011.5 1010.1 0.0
21/10:33am 37.0 33.9 16.5 29 13.2 NNW 28 46 15 25 1011.8 1010.4 0.0
21/10:30am 36.8 33.4 15.8 28 13.4 NNW 28 41 15 22 1011.9 1010.5 0.0
21/10:00am 36.8 34.6 16.9 31 12.9 NNW 24 39 13 21 1012.3 1010.9 0.0
21/09:30am 35.7 32.5 15.4 29 12.8 NNW 26 35 14 19 1012.6 1011.2 0.0
21/09:00am 35.0 32.0 15.8 31 12.2 N 26 33 14 18 1012.7 1011.3 0.0
21/08:30am 34.0 30.8 15.4 32 11.7 N 26 33 14 18 1012.6 1011.2 0.0
21/08:00am 33.4 30.2 15.4 34 11.3 N 26 37 14 20 1012.4 1011.0 0.0
21/07:30am 32.8 31.4 18.9 43 9.1 N 24 33 13 18 1012.3 1010.9 0.0

Other Formats:

Comma delimited format used in spreadsheet applications
http://www.bom.gov.au/fwo/IDQ60801/IDQ60801.94341.axf

JavaScript Object Notation format (JSON) in row-major order
http://www.bom.gov.au/fwo/IDQ60801/IDQ60801.94341.json